createdAt,value
2023-09-04T00:00:58.879Z,5.43
2023-09-04T00:03:28.697Z,5.43
2023-09-04T00:05:56.673Z,5.60
2023-09-04T00:08:23.810Z,4.70
2023-09-04T00:10:50.943Z,3.83
2023-09-04T00:13:17.952Z,3.80
2023-09-04T00:15:46.109Z,4.30
2023-09-04T00:18:14.359Z,4.20
2023-09-04T00:20:41.953Z,4.75
2023-09-04T00:23:08.952Z,4.25
2023-09-04T00:25:36.039Z,3.95
2023-09-04T00:28:04.456Z,3.65
2023-09-04T00:30:31.449Z,5.05
2023-09-04T00:33:20.859Z,4.80
2023-09-04T00:35:47.915Z,4.80
2023-09-04T00:38:14.887Z,4.05
2023-09-04T00:40:41.967Z,4.45
2023-09-04T00:43:08.917Z,4.10
2023-09-04T00:45:36.614Z,4.50
2023-09-04T00:48:04.827Z,4.90
2023-09-04T00:50:31.896Z,4.60
2023-09-04T00:53:01.775Z,4.35
2023-09-04T00:55:28.794Z,4.20
2023-09-04T00:57:56.005Z,5.15
2023-09-04T01:00:28.777Z,4.75
2023-09-04T01:02:56.310Z,4.68
2023-09-04T01:05:23.835Z,5.43
2023-09-04T01:07:51.000Z,4.47
2023-09-04T01:10:18.445Z,4.90
2023-09-04T01:13:11.170Z,4.85
2023-09-04T01:15:38.188Z,4.63
2023-09-04T01:18:05.688Z,4.50
2023-09-04T01:20:33.545Z,4.38
2023-09-04T01:23:00.893Z,4.53
2023-09-04T01:25:33.605Z,4.65
2023-09-04T01:28:41.067Z,3.90
2023-09-04T01:31:35.649Z,4.45
2023-09-04T01:34:09.571Z,3.90
2023-09-04T01:36:37.648Z,4.18
2023-09-04T01:39:05.282Z,4.32
2023-09-04T01:41:32.325Z,6.65
2023-09-04T01:43:59.218Z,5.00
2023-09-04T01:46:26.645Z,4.78
2023-09-04T01:48:53.602Z,4.15
2023-09-04T01:51:20.708Z,4.63
2023-09-04T01:53:47.597Z,3.72
2023-09-04T01:56:14.700Z,4.10
2023-09-04T01:58:41.700Z,4.63
2023-09-04T02:01:08.688Z,5.10
2023-09-04T02:03:35.862Z,4.60
2023-09-04T02:06:02.837Z,5.10
2023-09-04T02:08:29.969Z,5.07
2023-09-04T02:10:59.518Z,5.30
2023-09-04T02:13:26.660Z,5.15
2023-09-04T02:15:53.676Z,4.70
2023-09-04T02:18:20.785Z,5.38
2023-09-04T02:20:48.381Z,5.25
2023-09-04T02:23:15.497Z,6.60
2023-09-04T02:25:42.413Z,5.78
2023-09-04T02:28:09.475Z,6.10
2023-09-04T02:30:39.253Z,5.88
2023-09-04T02:33:06.650Z,5.60
2023-09-04T02:35:35.520Z,5.00
2023-09-04T02:38:02.657Z,5.35
2023-09-04T02:40:29.787Z,4.45
2023-09-04T02:42:56.898Z,4.82
2023-09-04T02:45:26.853Z,4.57
2023-09-04T02:47:55.623Z,4.75
2023-09-04T02:50:22.866Z,4.93
2023-09-04T02:52:50.028Z,4.82
2023-09-04T02:55:17.017Z,5.82
2023-09-04T02:57:44.231Z,4.45
2023-09-04T03:00:13.615Z,3.97
2023-09-04T03:02:41.788Z,4.38
2023-09-04T03:05:09.887Z,4.00
2023-09-04T03:07:37.425Z,3.90
2023-09-04T03:10:04.854Z,4.30
2023-09-04T03:12:34.549Z,4.22
2023-09-04T03:15:10.470Z,5.28
2023-09-04T03:17:39.280Z,3.95
2023-09-04T03:20:10.741Z,4.53
2023-09-04T03:22:38.444Z,4.60
2023-09-04T03:25:05.881Z,4.80
2023-09-04T03:27:34.485Z,5.10
2023-09-04T03:30:02.594Z,6.18
2023-09-04T03:32:29.630Z,5.35
2023-09-04T03:34:56.610Z,5.55
2023-09-04T03:37:23.599Z,5.38
2023-09-04T03:39:50.660Z,5.75
2023-09-04T03:42:17.854Z,4.80
2023-09-04T03:44:44.919Z,5.03
2023-09-04T03:47:12.778Z,5.50
2023-09-04T03:49:40.147Z,5.10
2023-09-04T03:52:08.033Z,4.43
2023-09-04T03:54:35.268Z,4.82
2023-09-04T03:57:02.156Z,5.05
2023-09-04T03:59:29.218Z,5.13
2023-09-04T04:01:56.131Z,5.55
2023-09-04T04:04:23.062Z,6.38
2023-09-04T04:06:50.106Z,5.50
2023-09-04T04:09:17.313Z,4.85
2023-09-04T04:11:44.914Z,4.95
2023-09-04T04:14:12.691Z,5.25
2023-09-04T04:16:39.804Z,5.55
2023-09-04T04:19:07.559Z,5.72
2023-09-04T04:21:34.745Z,4.78
2023-09-04T04:24:01.661Z,5.10
2023-09-04T04:26:29.019Z,5.70
2023-09-04T04:28:55.958Z,7.05
2023-09-04T04:31:23.743Z,5.63
2023-09-04T04:33:51.068Z,5.75
2023-09-04T04:36:19.429Z,5.25
2023-09-04T04:38:46.483Z,5.32
2023-09-04T04:41:14.668Z,5.32
2023-09-04T04:43:41.746Z,6.07
2023-09-04T04:46:13.842Z,5.85
2023-09-04T04:48:41.497Z,5.80
2023-09-04T04:51:09.594Z,5.88
2023-09-04T04:53:37.894Z,5.50
2023-09-04T04:56:05.175Z,4.72
2023-09-04T04:58:32.241Z,5.07
2023-09-04T05:00:59.255Z,5.03
2023-09-04T05:03:26.837Z,5.13
2023-09-04T05:05:53.892Z,5.47
2023-09-04T05:08:20.775Z,5.82
2023-09-04T05:11:00.812Z,6.05
2023-09-04T05:13:27.815Z,5.35
2023-09-04T05:15:54.891Z,5.72
2023-09-04T05:18:23.171Z,5.63
2023-09-04T05:20:50.440Z,5.78
2023-09-04T05:23:17.558Z,5.38
2023-09-04T05:25:52.271Z,6.20
2023-09-04T05:28:19.497Z,4.70
2023-09-04T05:30:47.099Z,5.35
2023-09-04T05:33:14.363Z,5.60
2023-09-04T05:35:42.428Z,4.72
2023-09-04T05:38:09.340Z,5.53
2023-09-04T05:40:36.395Z,6.30
2023-09-04T05:43:03.414Z,5.47
2023-09-04T05:45:30.398Z,5.55
2023-09-04T05:47:57.705Z,5.93
2023-09-04T05:50:24.707Z,5.15
2023-09-04T05:52:51.690Z,6.15
2023-09-04T05:55:18.837Z,5.53
2023-09-04T05:57:45.782Z,5.93
2023-09-04T06:00:13.646Z,6.22
2023-09-04T06:02:40.662Z,5.97
2023-09-04T06:05:08.283Z,5.78
2023-09-04T06:07:35.753Z,6.63
2023-09-04T06:10:05.220Z,7.55
2023-09-04T06:12:32.327Z,7.53
2023-09-04T06:14:59.295Z,7.95
2023-09-04T06:17:26.270Z,7.45
2023-09-04T06:19:53.369Z,7.13
2023-09-04T06:22:20.389Z,7.45
2023-09-04T06:24:47.431Z,8.38
2023-09-04T06:27:14.339Z,8.45
2023-09-04T06:29:41.582Z,7.82
2023-09-04T06:32:08.690Z,7.15
2023-09-04T06:34:35.739Z,7.03
2023-09-04T06:37:02.620Z,8.07
2023-09-04T06:39:29.853Z,8.27
2023-09-04T06:41:57.091Z,7.65
2023-09-04T06:44:29.107Z,7.75
2023-09-04T06:46:56.126Z,8.05
2023-09-04T06:49:22.984Z,7.55
2023-09-04T06:51:49.938Z,6.65
2023-09-04T06:54:16.935Z,6.13
2023-09-04T06:56:43.872Z,5.97
2023-09-04T06:59:11.034Z,7.07
2023-09-04T07:01:37.944Z,6.40
2023-09-04T07:04:06.976Z,5.63
2023-09-04T07:06:33.848Z,7.15
2023-09-04T07:09:00.967Z,6.40
2023-09-04T07:11:28.221Z,6.00
2023-09-04T07:13:55.196Z,6.05
2023-09-04T07:16:36.434Z,5.10
2023-09-04T07:19:07.237Z,5.43
2023-09-04T07:21:34.184Z,4.82
2023-09-04T07:24:01.143Z,5.82
2023-09-04T07:26:28.095Z,7.93
2023-09-04T07:28:55.209Z,5.90
2023-09-04T07:31:22.380Z,5.22
2023-09-04T07:33:50.431Z,5.63
2023-09-04T07:36:18.253Z,5.88
2023-09-04T07:38:46.764Z,6.05
2023-09-04T07:41:14.021Z,6.95
2023-09-04T07:43:40.937Z,5.82
2023-09-04T07:46:08.199Z,5.85
2023-09-04T07:48:38.185Z,6.22
2023-09-04T07:51:16.264Z,6.10
2023-09-04T07:53:46.846Z,5.55
2023-09-04T07:56:16.692Z,6.38
2023-09-04T07:58:45.654Z,5.90
2023-09-04T08:01:15.795Z,6.10
2023-09-04T08:03:43.226Z,5.75
2023-09-04T08:06:10.514Z,5.90
2023-09-04T08:08:38.286Z,6.63
2023-09-04T08:11:05.471Z,6.10
2023-09-04T08:13:32.796Z,6.30
2023-09-04T08:15:59.884Z,6.40
2023-09-04T08:18:27.362Z,6.85
2023-09-04T08:20:54.524Z,6.93
2023-09-04T08:23:21.850Z,5.43
2023-09-04T08:25:49.085Z,6.82
2023-09-04T08:28:16.224Z,6.90
2023-09-04T08:30:43.513Z,6.35
2023-09-04T08:33:11.053Z,6.97
2023-09-04T08:35:38.677Z,6.75
2023-09-04T08:38:08.666Z,7.28
2023-09-04T08:40:36.507Z,8.15
2023-09-04T08:43:08.528Z,7.22
2023-09-04T08:45:38.137Z,6.38
2023-09-04T08:48:06.172Z,7.15
2023-09-04T08:50:33.667Z,6.75
2023-09-04T08:53:01.140Z,6.43
2023-09-04T08:55:28.656Z,7.13
2023-09-04T08:57:55.836Z,6.75
2023-09-04T09:00:23.139Z,6.43
2023-09-04T09:02:50.835Z,6.80
2023-09-04T09:05:19.081Z,7.15
2023-09-04T09:07:48.083Z,6.43
2023-09-04T09:10:20.005Z,7.05
2023-09-04T09:12:47.338Z,6.82
2023-09-04T09:15:18.753Z,6.80
2023-09-04T09:17:57.551Z,7.47
2023-09-04T09:20:35.482Z,6.38
2023-09-04T09:23:08.556Z,6.88
2023-09-04T09:25:37.470Z,6.00
2023-09-04T09:28:07.133Z,6.47
2023-09-04T09:30:40.097Z,5.93
2023-09-04T09:33:14.113Z,6.45
2023-09-04T09:35:41.897Z,6.15
2023-09-04T09:38:09.575Z,5.97
2023-09-04T09:40:37.887Z,6.55
2023-09-04T09:43:05.031Z,5.03
2023-09-04T09:45:37.093Z,5.38
2023-09-04T09:48:08.821Z,6.25
2023-09-04T09:50:42.671Z,6.40
2023-09-04T09:53:09.873Z,5.43
2023-09-04T09:55:37.061Z,6.93
2023-09-04T09:58:05.719Z,5.50
2023-09-04T10:00:32.787Z,5.97
2023-09-04T10:03:00.199Z,5.57
2023-09-04T10:05:27.994Z,6.45
2023-09-04T10:08:02.934Z,5.68
2023-09-04T10:10:40.476Z,6.18
2023-09-04T10:13:18.355Z,5.60
2023-09-04T10:15:49.325Z,5.97
2023-09-04T10:18:22.636Z,5.65
2023-09-04T10:20:50.541Z,6.38
2023-09-04T10:23:20.942Z,5.60
2023-09-04T10:25:55.390Z,5.90
2023-09-04T10:28:41.772Z,5.47
2023-09-04T10:31:10.719Z,6.53
2023-09-04T10:33:41.327Z,6.22
2023-09-04T10:36:09.257Z,6.25
2023-09-04T10:38:37.872Z,6.22
2023-09-04T10:41:08.825Z,6.07
2023-09-04T10:43:45.836Z,5.38
2023-09-04T10:46:14.491Z,5.03
2023-09-04T10:48:49.367Z,5.50
2023-09-04T10:51:36.200Z,4.95
2023-09-04T10:54:19.367Z,5.90
2023-09-04T10:56:59.310Z,5.88
2023-09-04T10:59:27.296Z,4.97
2023-09-04T11:01:54.629Z,5.18
2023-09-04T11:04:33.461Z,4.93
2023-09-04T11:07:22.401Z,5.68
2023-09-04T11:09:50.264Z,4.72
2023-09-04T11:12:24.366Z,6.13
2023-09-04T11:14:55.983Z,4.97
2023-09-04T11:17:31.228Z,5.90
2023-09-04T11:20:00.319Z,5.38
2023-09-04T11:22:27.337Z,5.28
2023-09-04T11:24:56.146Z,5.63
2023-09-04T11:27:24.499Z,4.85
2023-09-04T11:29:52.195Z,5.72
2023-09-04T11:32:20.002Z,5.40
2023-09-04T11:34:48.661Z,5.13
2023-09-04T11:37:15.706Z,4.80
2023-09-04T11:40:12.540Z,5.00
2023-09-04T11:42:40.358Z,4.55
2023-09-04T11:45:08.234Z,4.57
2023-09-04T11:47:36.058Z,4.88
2023-09-04T11:50:03.291Z,5.55
2023-09-04T11:52:30.657Z,4.70
2023-09-04T11:54:58.259Z,5.13
2023-09-04T11:57:25.981Z,5.57
2023-09-04T11:59:53.105Z,4.80
2023-09-04T12:02:20.154Z,4.97
2023-09-04T12:04:47.888Z,5.15
2023-09-04T12:07:17.675Z,4.70
2023-09-04T12:09:44.954Z,4.63
2023-09-04T12:12:11.998Z,4.97
2023-09-04T12:14:45.359Z,5.07
2023-09-04T12:17:13.318Z,4.97
2023-09-04T12:19:41.437Z,5.55
2023-09-04T12:22:15.035Z,4.55
2023-09-04T12:25:05.564Z,4.70
2023-09-04T12:27:34.890Z,5.47
2023-09-04T12:30:02.119Z,4.95
2023-09-04T12:32:29.189Z,5.30
2023-09-04T12:35:03.230Z,5.00
2023-09-04T12:37:39.887Z,4.72
2023-09-04T12:40:09.814Z,5.10
2023-09-04T12:42:38.258Z,5.32
2023-09-04T12:45:07.547Z,5.07
2023-09-04T12:47:34.667Z,4.97
2023-09-04T12:50:01.659Z,4.82
2023-09-04T12:52:30.807Z,4.55
2023-09-04T12:54:58.007Z,4.57
2023-09-04T12:57:24.953Z,4.45
2023-09-04T12:59:51.781Z,4.35
2023-09-04T13:02:18.873Z,5.45
2023-09-04T13:04:45.816Z,4.35
2023-09-04T13:07:13.115Z,4.88
2023-09-04T13:09:39.966Z,6.10
2023-09-04T13:12:07.428Z,5.15
2023-09-04T13:14:34.391Z,4.68
2023-09-04T13:17:01.396Z,4.35
2023-09-04T13:19:28.569Z,4.35
2023-09-04T13:21:55.441Z,4.75
2023-09-04T13:24:22.440Z,4.07
2023-09-04T13:26:49.412Z,4.65
2023-09-04T13:29:17.952Z,4.07
2023-09-04T13:31:44.858Z,3.78
2023-09-04T13:34:11.885Z,3.88
2023-09-04T13:36:38.755Z,4.50
2023-09-04T13:39:05.920Z,3.75
2023-09-04T13:41:33.092Z,4.00
2023-09-04T13:44:00.171Z,3.88
2023-09-04T13:46:27.050Z,4.07
2023-09-04T13:48:54.175Z,4.88
2023-09-04T13:51:22.540Z,6.20
2023-09-04T13:53:49.658Z,4.65
2023-09-04T13:56:17.082Z,4.50
2023-09-04T13:58:44.108Z,4.75
2023-09-04T14:01:15.447Z,5.25
2023-09-04T14:03:43.964Z,4.88
2023-09-04T14:06:11.004Z,4.45
2023-09-04T14:08:38.151Z,5.45
2023-09-04T14:11:05.117Z,5.03
2023-09-04T14:13:32.018Z,4.50
2023-09-04T14:15:59.034Z,4.22
2023-09-04T14:18:26.048Z,4.13
2023-09-04T14:20:53.146Z,4.45
2023-09-04T14:23:20.247Z,5.10
2023-09-04T14:25:50.965Z,4.32
2023-09-04T14:28:18.097Z,4.28
2023-09-04T14:30:45.566Z,5.10
2023-09-04T14:33:12.920Z,5.45
2023-09-04T14:35:39.944Z,5.15
2023-09-04T14:38:07.326Z,5.50
2023-09-04T14:40:45.440Z,5.05
2023-09-04T14:43:12.775Z,5.45
2023-09-04T14:45:39.835Z,4.78
2023-09-04T14:48:07.226Z,4.50
2023-09-04T14:50:34.413Z,4.60
2023-09-04T14:53:01.411Z,4.35
2023-09-04T14:55:28.498Z,5.40
2023-09-04T14:57:58.617Z,4.57
2023-09-04T15:00:27.639Z,4.80
2023-09-04T15:02:54.812Z,5.57
2023-09-04T15:05:21.984Z,4.88
2023-09-04T15:07:49.027Z,4.47
2023-09-04T15:10:16.187Z,4.28
2023-09-04T15:12:43.154Z,3.95
2023-09-04T15:15:10.490Z,4.38
2023-09-04T15:17:37.455Z,4.47
2023-09-04T15:20:04.882Z,5.78
2023-09-04T15:22:34.078Z,4.18
2023-09-04T15:25:01.066Z,5.50
2023-09-04T15:27:28.070Z,6.82
2023-09-04T15:29:54.969Z,5.70
2023-09-04T15:32:22.110Z,5.75
2023-09-04T15:34:49.005Z,5.90
2023-09-04T15:37:16.617Z,4.57
2023-09-04T15:39:43.938Z,5.45
2023-09-04T15:42:13.830Z,5.38
2023-09-04T15:44:41.183Z,5.28
2023-09-04T15:47:08.507Z,5.20
2023-09-04T15:49:35.990Z,6.28
2023-09-04T15:52:03.300Z,5.72
2023-09-04T15:54:33.379Z,5.65
2023-09-04T15:57:04.244Z,5.55
2023-09-04T15:59:35.642Z,5.68
2023-09-04T16:02:03.709Z,5.13
2023-09-04T16:04:31.574Z,7.15
2023-09-04T16:06:58.646Z,11.15
2023-09-04T16:09:26.654Z,6.63
2023-09-04T16:11:55.576Z,15.52
2023-09-04T16:14:23.240Z,18.67
2023-09-04T16:16:50.353Z,16.30
2023-09-04T16:19:17.499Z,7.32
2023-09-04T16:21:44.639Z,6.28
2023-09-04T16:24:11.611Z,8.15
2023-09-04T16:26:40.331Z,5.72
2023-09-04T16:29:08.526Z,5.95
2023-09-04T16:31:36.437Z,12.27
2023-09-04T16:34:06.234Z,5.85
2023-09-04T16:36:33.849Z,6.07
2023-09-04T16:39:01.554Z,6.50
2023-09-04T16:41:28.959Z,5.38
2023-09-04T16:43:56.419Z,6.68
2023-09-04T16:46:23.526Z,5.65
2023-09-04T16:48:50.583Z,5.82
2023-09-04T16:51:17.627Z,5.55
2023-09-04T16:53:44.549Z,6.43
2023-09-04T16:56:11.695Z,5.75
2023-09-04T16:58:38.633Z,9.90
2023-09-04T17:01:05.841Z,5.90
2023-09-04T17:03:32.916Z,6.18
2023-09-04T17:06:00.406Z,5.28
2023-09-04T17:08:27.771Z,5.78
2023-09-04T17:10:54.946Z,5.65
2023-09-04T17:13:22.177Z,6.47
2023-09-04T17:15:49.212Z,5.45
2023-09-04T17:18:16.297Z,5.60
2023-09-04T17:20:44.171Z,5.68
2023-09-04T17:23:12.928Z,5.13
2023-09-04T17:25:41.604Z,5.72
2023-09-04T17:28:09.367Z,4.80
2023-09-04T17:30:37.355Z,5.70
2023-09-04T17:33:04.894Z,4.43
2023-09-04T17:35:35.092Z,5.05
2023-09-04T17:38:02.312Z,5.80
2023-09-04T17:40:29.209Z,8.30
2023-09-04T17:42:56.294Z,6.72
2023-09-04T17:45:23.385Z,6.20
2023-09-04T17:47:50.556Z,7.78
2023-09-04T17:50:17.560Z,5.47
2023-09-04T17:52:44.651Z,5.20
2023-09-04T17:55:11.634Z,5.43
2023-09-04T17:57:38.540Z,7.50
2023-09-04T18:00:08.188Z,7.65
2023-09-04T18:02:40.060Z,5.75
2023-09-04T18:05:07.457Z,5.40
2023-09-04T18:07:34.479Z,5.85
2023-09-04T18:10:01.609Z,6.07
2023-09-04T18:12:28.599Z,5.90
2023-09-04T18:14:55.511Z,5.32
2023-09-04T18:17:22.645Z,6.32
2023-09-04T18:19:49.612Z,6.15
2023-09-04T18:22:16.658Z,6.35
2023-09-04T18:24:44.318Z,5.82
2023-09-04T18:27:11.294Z,5.38
2023-09-04T18:29:38.470Z,5.95
2023-09-04T18:32:06.012Z,5.25
2023-09-04T18:34:33.041Z,5.63
2023-09-04T18:37:00.037Z,7.65
2023-09-04T18:39:26.956Z,7.53
2023-09-04T18:41:54.038Z,6.30
2023-09-04T18:44:21.345Z,6.20
2023-09-04T18:46:48.525Z,5.85
2023-09-04T18:49:15.457Z,6.00
2023-09-04T18:51:42.453Z,5.30
2023-09-04T18:54:09.464Z,5.32
2023-09-04T18:56:36.461Z,5.78
2023-09-04T18:59:03.307Z,5.93
2023-09-04T19:01:32.486Z,6.70
2023-09-04T19:03:59.555Z,6.95
2023-09-04T19:06:26.896Z,6.70
2023-09-04T19:08:55.889Z,6.18
2023-09-04T19:11:22.970Z,6.07
2023-09-04T19:13:49.894Z,6.25
2023-09-04T19:16:16.955Z,6.07
2023-09-04T19:18:44.015Z,15.23
2023-09-04T19:21:10.965Z,7.13
2023-09-04T19:23:38.012Z,7.60
2023-09-04T19:26:05.059Z,8.90
2023-09-04T19:28:48.159Z,7.28
2023-09-04T19:31:17.520Z,9.00
2023-09-04T19:33:45.070Z,8.40
2023-09-04T19:36:11.988Z,8.07
2023-09-04T19:38:38.984Z,8.43
2023-09-04T19:41:05.931Z,10.13
2023-09-04T19:43:32.954Z,8.15
2023-09-04T19:45:59.925Z,8.05
2023-09-04T19:48:27.270Z,9.27
2023-09-04T19:50:54.598Z,7.18
2023-09-04T19:53:22.248Z,8.73
2023-09-04T19:55:49.673Z,7.78
2023-09-04T19:58:16.895Z,6.38
2023-09-04T20:00:44.039Z,7.82
2023-09-04T20:03:11.044Z,7.32
2023-09-04T20:05:39.599Z,8.05
2023-09-04T20:08:06.613Z,6.60
2023-09-04T20:10:33.859Z,7.07
2023-09-04T20:13:00.847Z,7.13
2023-09-04T20:15:27.755Z,7.43
2023-09-04T20:17:54.757Z,6.72
2023-09-04T20:20:21.857Z,6.80
2023-09-04T20:22:48.731Z,7.35
2023-09-04T20:25:16.068Z,7.55
2023-09-04T20:27:42.948Z,6.95
2023-09-04T20:30:10.994Z,6.38
2023-09-04T20:32:38.105Z,7.45
2023-09-04T20:35:09.061Z,6.57
2023-09-04T20:37:36.840Z,7.13
2023-09-04T20:40:04.822Z,7.10
2023-09-04T20:42:32.431Z,6.35
2023-09-04T20:45:00.355Z,6.18
2023-09-04T20:47:27.485Z,6.80
2023-09-04T20:49:54.543Z,5.97
2023-09-04T20:52:21.570Z,7.05
2023-09-04T20:54:48.741Z,6.85
2023-09-04T20:57:15.776Z,6.22
2023-09-04T20:59:42.685Z,5.57
2023-09-04T21:02:10.335Z,6.97
2023-09-04T21:04:37.348Z,6.35
2023-09-04T21:07:10.487Z,7.20
2023-09-04T21:09:37.492Z,6.32
2023-09-04T21:12:23.245Z,5.93
2023-09-04T21:15:09.128Z,6.68
2023-09-04T21:17:54.620Z,6.40
2023-09-04T21:20:40.069Z,6.32
2023-09-04T21:23:25.941Z,5.60
2023-09-04T21:26:12.119Z,6.38
2023-09-04T21:28:57.746Z,6.28
2023-09-04T21:31:43.618Z,5.85
2023-09-04T21:34:29.525Z,6.03
2023-09-04T21:37:15.180Z,5.70
2023-09-04T21:40:00.888Z,5.53
2023-09-04T21:42:46.611Z,4.97
2023-09-04T21:45:32.368Z,6.15
2023-09-04T21:48:18.119Z,6.28
2023-09-04T21:51:03.443Z,6.25
2023-09-04T21:53:49.055Z,5.43
2023-09-04T21:56:34.784Z,5.55
2023-09-04T21:59:20.323Z,5.43
2023-09-04T22:02:06.152Z,4.75
2023-09-04T22:04:51.968Z,5.55
2023-09-04T22:07:37.906Z,6.07
2023-09-04T22:10:23.743Z,5.97
2023-09-04T22:13:09.512Z,5.30
2023-09-04T22:15:54.936Z,4.95
2023-09-04T22:18:42.722Z,5.53
2023-09-04T22:21:28.639Z,5.07
2023-09-04T22:24:14.624Z,5.50
2023-09-04T22:27:00.433Z,4.75
2023-09-04T22:29:46.425Z,5.35
2023-09-04T22:32:31.728Z,5.05
2023-09-04T22:35:17.603Z,5.35
2023-09-04T22:38:03.521Z,4.57
2023-09-04T22:40:52.839Z,4.38
2023-09-04T22:43:39.067Z,4.43
2023-09-04T22:46:24.880Z,4.50
2023-09-04T22:49:10.777Z,5.13
2023-09-04T22:51:57.687Z,20.05
2023-09-04T22:54:44.068Z,32.80
2023-09-04T22:57:29.725Z,21.65
2023-09-04T23:00:15.487Z,4.93
2023-09-04T23:03:01.117Z,5.05
2023-09-04T23:05:46.957Z,5.63
2023-09-04T23:08:32.821Z,4.68
2023-09-04T23:11:18.289Z,5.05
2023-09-04T23:14:04.019Z,4.72
2023-09-04T23:16:52.678Z,4.53
2023-09-04T23:19:38.086Z,4.55
2023-09-04T23:22:07.102Z,4.50
2023-09-04T23:24:35.398Z,4.40
2023-09-04T23:27:05.259Z,4.88
2023-09-04T23:29:32.555Z,4.30
2023-09-04T23:32:10.796Z,4.07
2023-09-04T23:34:38.507Z,4.63
2023-09-04T23:37:10.224Z,5.15
2023-09-04T23:39:56.932Z,5.15
2023-09-04T23:42:50.057Z,5.68
2023-09-04T23:45:18.452Z,5.55
2023-09-04T23:47:52.326Z,5.13
2023-09-04T23:50:21.909Z,6.45
2023-09-04T23:52:53.135Z,9.02
2023-09-04T23:55:22.900Z,5.18
2023-09-04T23:57:49.858Z,4.82
